Time;durP1;ratioP1;P1;durP2;ratioP2;P2;SDS_P1;SDS_P2;PMS_P1;PMS_P2;Temp;Humidity;BMP_temperature;BMP_pressure;BME280_temperature;BME280_humidity;BME280_pressure;Samples;Min_cycle;Max_cycle;Signal;HPM_P1;HPM_P2
2023/07/22 00:01:38;;;;;;;9.27;5.63;;;14.90;99.90;;;;;;5022306;28;20213;-89
2023/07/22 00:04:13;;;;;;;10.83;5.80;;;15.00;99.90;;;;;;5022975;28;20827;-91
2023/07/22 00:06:48;;;;;;;11.87;6.33;;;15.10;99.90;;;;;;5018372;28;20208;-89
2023/07/22 00:09:16;;;;;;;12.63;6.23;;;15.10;99.90;;;;;;5022876;28;20646;-90
2023/07/22 00:11:44;;;;;;;13.33;6.50;;;15.10;99.90;;;;;;5023130;28;20210;-90
2023/07/22 00:14:12;;;;;;;12.83;6.73;;;15.10;99.90;;;;;;5022994;28;20261;-90
2023/07/22 00:16:40;;;;;;;10.40;5.33;;;15.10;99.90;;;;;;5022979;28;20202;-90
2023/07/22 00:19:10;;;;;;;10.10;6.17;;;15.10;99.90;;;;;;5023589;28;20202;-90
2023/07/22 00:21:37;;;;;;;13.13;6.37;;;15.10;99.90;;;;;;5024026;28;20281;-91
2023/07/22 00:24:06;;;;;;;14.20;7.00;;;15.10;99.90;;;;;;5024086;28;20198;-92
2023/07/22 00:26:37;;;;;;;12.53;6.93;;;15.10;99.90;;;;;;5022249;28;20217;-91
2023/07/22 00:29:07;;;;;;;12.13;6.77;;;15.00;99.90;;;;;;5023025;28;20281;-91
2023/07/22 00:31:37;;;;;;;13.67;7.30;;;14.90;99.90;;;;;;5025070;28;20202;-89
2023/07/22 00:34:18;;;;;;;12.67;6.90;;;14.90;99.90;;;;;;5041243;28;20229;-91
2023/07/22 00:36:47;;;;;;;13.10;6.43;;;14.80;99.90;;;;;;5022506;28;20228;-91
2023/07/22 00:39:14;;;;;;;13.37;8.10;;;14.80;99.90;;;;;;5022452;28;20267;-91
2023/07/22 00:41:44;;;;;;;13.87;7.33;;;14.70;99.90;;;;;;5022040;28;20300;-91
2023/07/22 00:44:12;;;;;;;16.77;8.27;;;14.70;99.90;;;;;;5021533;28;20642;-90
2023/07/22 00:46:47;;;;;;;14.57;7.43;;;14.70;99.90;;;;;;5030384;28;20764;-89
2023/07/22 00:49:21;;;;;;;16.00;7.53;;;14.70;99.90;;;;;;5026686;28;20228;-91
2023/07/22 00:51:49;;;;;;;18.03;8.30;;;14.70;99.90;;;;;;5006895;28;20237;-90
2023/07/22 00:54:17;;;;;;;15.73;7.73;;;14.60;99.90;;;;;;5002684;28;20198;-91
2023/07/22 00:56:47;;;;;;;14.80;8.30;;;14.60;99.90;;;;;;5002002;28;20226;-89
2023/07/22 00:59:21;;;;;;;17.97;7.93;;;14.60;99.90;;;;;;5001647;28;20199;-90
2023/07/22 01:01:51;;;;;;;17.47;7.93;;;14.60;99.90;;;;;;5001726;28;20563;-91
2023/07/22 01:04:23;;;;;;;15.23;8.00;;;14.50;99.90;;;;;;5002218;28;20198;-91
2023/07/22 01:06:54;;;;;;;17.17;8.47;;;14.50;99.90;;;;;;5002991;28;20639;-90
2023/07/22 01:09:38;;;;;;;16.50;8.50;;;14.50;99.90;;;;;;5003703;28;20202;-91
2023/07/22 01:12:13;;;;;;;16.20;8.23;;;14.50;99.90;;;;;;5002640;28;20281;-93
2023/07/22 01:14:42;;;;;;;18.73;8.27;;;14.50;99.90;;;;;;4998055;28;20222;-92
2023/07/22 01:17:14;;;;;;;14.80;7.57;;;14.40;99.90;;;;;;4983083;28;20245;-90
2023/07/22 01:19:45;;;;;;;17.03;8.90;;;14.40;99.90;;;;;;4999887;28;20223;-91
2023/07/22 01:22:16;;;;;;;17.83;7.87;;;14.40;99.90;;;;;;4996705;28;20245;-91
2023/07/22 01:24:56;;;;;;;16.97;8.63;;;14.50;99.90;;;;;;5022495;28;20198;-91
2023/07/22 01:27:31;;;;;;;18.23;7.97;;;14.50;99.90;;;;;;5006618;28;20290;-91
2023/07/22 01:29:58;;;;;;;16.17;8.33;;;14.60;99.90;;;;;;5003019;28;20198;-92
2023/07/22 01:32:27;;;;;;;19.93;8.50;;;14.60;99.90;;;;;;4991743;28;20226;-92
2023/07/22 01:35:01;;;;;;;15.60;7.43;;;14.60;99.90;;;;;;4999816;28;20306;-91
2023/07/22 01:37:28;;;;;;;21.73;9.50;;;14.60;99.90;;;;;;5003981;28;20208;-91
2023/07/22 01:39:57;;;;;;;21.17;9.03;;;14.60;99.90;;;;;;5007524;28;20187;-90
2023/07/22 01:42:24;;;;;;;20.97;8.47;;;14.70;99.90;;;;;;5008829;28;20314;-91
2023/07/22 01:44:53;;;;;;;18.60;9.50;;;14.70;99.90;;;;;;5022463;28;20226;-90
2023/07/22 01:47:20;;;;;;;20.57;9.53;;;14.70;99.90;;;;;;5033391;28;20215;-90
2023/07/22 01:49:48;;;;;;;21.87;10.03;;;14.70;99.90;;;;;;5035492;28;20218;-90
2023/07/22 01:52:17;;;;;;;19.17;9.53;;;14.70;99.90;;;;;;5036738;28;20205;-91
2023/07/22 01:54:44;;;;;;;19.80;9.80;;;14.70;99.90;;;;;;5036834;28;20192;-91
2023/07/22 01:57:11;;;;;;;18.70;9.00;;;14.70;99.90;;;;;;5006208;22;20600;-77
2023/07/22 01:59:39;;;;;;;19.33;9.07;;;14.80;99.90;;;;;;5065751;22;20313;-77
2023/07/22 02:02:07;;;;;;;17.40;9.07;;;14.70;99.90;;;;;;5046914;28;20212;-77
2023/07/22 02:04:34;;;;;;;21.57;10.30;;;14.70;99.90;;;;;;5057345;28;20208;-77
2023/07/22 02:07:01;;;;;;;18.07;9.47;;;14.80;99.90;;;;;;5050123;28;20292;-76
2023/07/22 02:09:27;;;;;;;22.30;10.00;;;14.80;99.90;;;;;;5053002;28;20250;-77
2023/07/22 02:11:54;;;;;;;21.37;9.40;;;14.80;99.90;;;;;;5038228;28;20268;-78
2023/07/22 02:14:21;;;;;;;22.57;10.83;;;14.90;99.90;;;;;;5068041;28;20248;-77
2023/07/22 02:16:47;;;;;;;19.07;10.30;;;14.70;99.90;;;;;;5060135;28;20197;-78
2023/07/22 02:19:15;;;;;;;20.67;10.00;;;14.70;99.90;;;;;;5069741;28;20237;-78
2023/07/22 02:21:42;;;;;;;19.27;10.07;;;14.70;99.90;;;;;;5062210;28;20232;-77
2023/07/22 02:24:09;;;;;;;20.27;10.60;;;14.60;99.90;;;;;;5069829;28;20318;-77
2023/07/22 02:26:36;;;;;;;20.20;10.83;;;14.60;99.90;;;;;;5059350;28;20244;-77
2023/07/22 02:29:03;;;;;;;21.50;9.73;;;14.60;99.90;;;;;;5063852;28;20198;-78
2023/07/22 02:31:30;;;;;;;19.47;10.20;;;14.60;99.90;;;;;;5054689;28;20292;-77
2023/07/22 02:33:57;;;;;;;22.77;10.67;;;14.60;99.90;;;;;;5070690;28;20197;-77
2023/07/22 02:36:23;;;;;;;23.47;11.23;;;14.60;99.90;;;;;;5058006;28;20208;-77
2023/07/22 02:38:51;;;;;;;24.27;11.27;;;14.60;99.90;;;;;;5062816;28;20489;-76
2023/07/22 02:41:18;;;;;;;23.07;9.87;;;14.60;99.90;;;;;;5059921;28;20201;-76
2023/07/22 02:43:45;;;;;;;20.23;9.60;;;14.60;99.90;;;;;;5066085;28;20244;-75
2023/07/22 02:46:11;;;;;;;18.93;9.30;;;14.60;99.90;;;;;;5065744;28;20432;-75
2023/07/22 02:48:39;;;;;;;20.37;10.57;;;14.60;99.90;;;;;;5071151;28;20284;-77
2023/07/22 02:51:12;;;;;;;23.97;9.40;;;14.60;99.90;;;;;;5071276;28;20208;-77
2023/07/22 02:53:41;;;;;;;19.83;9.70;;;14.60;99.90;;;;;;5049926;28;20209;-76
2023/07/22 02:56:08;;;;;;;21.07;11.30;;;14.60;99.90;;;;;;5023467;28;20208;-76
2023/07/22 02:58:36;;;;;;;27.30;11.13;;;14.60;99.90;;;;;;5049248;28;20221;-76
2023/07/22 03:01:08;;;;;;;22.83;10.03;;;14.50;99.90;;;;;;5057531;28;20223;-77
2023/07/22 03:03:36;;;;;;;22.57;10.53;;;14.40;99.90;;;;;;5055307;28;20201;-75
2023/07/22 03:06:04;;;;;;;21.43;10.67;;;14.50;99.90;;;;;;5070541;28;20229;-75
2023/07/22 03:08:31;;;;;;;22.30;10.00;;;14.50;99.90;;;;;;5070217;28;20691;-75
2023/07/22 03:10:58;;;;;;;22.87;11.07;;;14.50;99.90;;;;;;5069759;28;20204;-77
2023/07/22 03:13:28;;;;;;;20.07;9.50;;;14.50;99.90;;;;;;5070122;28;20217;-77
2023/07/22 03:15:57;;;;;;;19.70;9.80;;;14.40;99.90;;;;;;5059427;28;20479;-76
2023/07/22 03:18:24;;;;;;;16.80;8.80;;;14.40;99.90;;;;;;5067461;28;20211;-76
2023/07/22 03:20:51;;;;;;;19.80;9.67;;;14.40;99.90;;;;;;5047091;28;20213;-76
2023/07/22 03:23:19;;;;;;;22.70;9.70;;;14.40;99.90;;;;;;5066270;28;20215;-76
2023/07/22 03:25:47;;;;;;;22.47;9.27;;;14.30;99.90;;;;;;5069260;28;20331;-77
2023/07/22 03:28:14;;;;;;;17.73;8.87;;;14.40;99.90;;;;;;5070164;28;20220;-77
2023/07/22 03:30:42;;;;;;;20.27;8.90;;;14.30;99.90;;;;;;5059464;28;20209;-76
2023/07/22 03:33:10;;;;;;;17.13;8.80;;;14.30;99.90;;;;;;5061331;28;20212;-76
2023/07/22 03:35:37;;;;;;;17.87;9.27;;;14.30;99.90;;;;;;5050686;28;20209;-76
2023/07/22 03:38:04;;;;;;;21.50;9.20;;;14.30;99.90;;;;;;5066647;28;20208;-75
2023/07/22 03:40:32;;;;;;;21.03;9.40;;;14.30;99.90;;;;;;5059854;28;20296;-76
2023/07/22 03:42:59;;;;;;;24.87;10.20;;;14.20;99.90;;;;;;5068195;28;20208;-76
2023/07/22 03:45:27;;;;;;;17.80;9.80;;;14.30;99.90;;;;;;5053058;28;20735;-75
2023/07/22 03:47:57;;;;;;;23.00;9.13;;;14.30;99.90;;;;;;5057797;28;20232;-76
2023/07/22 03:50:25;;;;;;;18.07;9.30;;;14.30;99.90;;;;;;5052456;28;20665;-75
2023/07/22 03:52:51;;;;;;;22.13;9.93;;;14.30;99.90;;;;;;5059463;28;20302;-76
2023/07/22 03:55:19;;;;;;;22.73;8.93;;;14.20;99.90;;;;;;5056925;28;20726;-75
2023/07/22 03:57:46;;;;;;;22.27;10.00;;;14.30;99.90;;;;;;5061594;28;20311;-76
2023/07/22 04:00:13;;;;;;;19.50;9.67;;;14.30;99.90;;;;;;5066234;28;20236;-76
2023/07/22 04:02:40;;;;;;;20.83;9.77;;;14.20;99.90;;;;;;5048639;28;20204;-76
2023/07/22 04:05:08;;;;;;;18.80;9.70;;;14.20;99.90;;;;;;5045194;28;20404;-76
2023/07/22 04:07:35;;;;;;;20.03;10.10;;;14.30;99.90;;;;;;5049244;28;20205;-76
2023/07/22 04:10:02;;;;;;;22.80;10.33;;;14.30;99.90;;;;;;5069123;28;20206;-76
2023/07/22 04:12:30;;;;;;;23.87;10.80;;;14.30;99.90;;;;;;5074889;28;20554;-76
2023/07/22 04:14:57;;;;;;;22.47;10.57;;;14.30;99.90;;;;;;5038606;28;20273;-75
2023/07/22 04:17:24;;;;;;;20.97;10.20;;;14.40;99.90;;;;;;5069632;28;20208;-76
2023/07/22 04:19:53;;;;;;;21.10;9.60;;;14.40;99.90;;;;;;5064269;28;20214;-76
2023/07/22 04:22:21;;;;;;;22.23;9.93;;;14.40;99.90;;;;;;5030766;28;20268;-76
2023/07/22 04:24:51;;;;;;;22.77;10.03;;;14.40;99.90;;;;;;5069653;28;20205;-76
2023/07/22 04:27:18;;;;;;;21.10;9.83;;;14.50;99.90;;;;;;5048677;28;20240;-76
2023/07/22 04:29:45;;;;;;;21.30;10.07;;;14.50;99.90;;;;;;5052396;28;20212;-76
2023/07/22 04:32:13;;;;;;;24.00;10.17;;;14.40;99.90;;;;;;5057257;28;20228;-76
2023/07/22 04:34:39;;;;;;;21.90;10.77;;;14.50;99.90;;;;;;5060375;28;20208;-76
2023/07/22 04:37:06;;;;;;;24.00;10.83;;;14.60;99.90;;;;;;5050474;28;20199;-76
2023/07/22 04:39:34;;;;;;;22.73;10.53;;;14.60;99.90;;;;;;5062707;28;20685;-75
2023/07/22 04:42:01;;;;;;;20.70;10.80;;;14.60;99.90;;;;;;5038511;28;20210;-76
2023/07/22 04:44:28;;;;;;;25.07;10.90;;;14.60;99.90;;;;;;5038659;28;20217;-75
2023/07/22 04:46:55;;;;;;;21.23;9.80;;;14.70;99.90;;;;;;5048300;28;20255;-76
2023/07/22 04:49:22;;;;;;;21.00;10.27;;;14.70;99.90;;;;;;5068742;28;20231;-75
2023/07/22 04:51:50;;;;;;;19.17;10.23;;;14.80;99.90;;;;;;5063125;28;20287;-75
2023/07/22 04:54:18;;;;;;;26.03;10.50;;;14.90;99.90;;;;;;5059047;28;20211;-75
2023/07/22 04:56:45;;;;;;;23.97;11.10;;;14.90;99.90;;;;;;5064157;28;20898;-77
2023/07/22 04:59:14;;;;;;;20.63;9.80;;;15.00;99.90;;;;;;5045025;28;20593;-75
2023/07/22 05:01:41;;;;;;;21.93;10.17;;;15.10;99.90;;;;;;5051978;28;20215;-75
2023/07/22 05:04:08;;;;;;;22.37;10.40;;;15.20;99.90;;;;;;5040439;28;20197;-75
2023/07/22 05:06:35;;;;;;;18.40;9.43;;;15.30;99.90;;;;;;5068477;28;20243;-76
2023/07/22 05:09:03;;;;;;;21.27;9.83;;;15.40;99.90;;;;;;5068331;28;20208;-76
2023/07/22 05:11:30;;;;;;;19.83;10.80;;;15.50;99.90;;;;;;5059842;28;20331;-76
2023/07/22 05:13:57;;;;;;;20.60;10.10;;;15.70;99.90;;;;;;5063856;28;20315;-74
2023/07/22 05:16:24;;;;;;;16.53;9.20;;;15.80;99.90;;;;;;5042866;28;20242;-75
2023/07/22 05:18:52;;;;;;;21.97;10.97;;;15.90;99.90;;;;;;5030664;28;20193;-75
2023/07/22 05:21:18;;;;;;;18.33;10.13;;;16.00;99.90;;;;;;5051919;28;20215;-75
2023/07/22 05:23:45;;;;;;;21.60;10.13;;;16.20;99.90;;;;;;5039027;28;20211;-76
2023/07/22 05:26:12;;;;;;;17.47;9.93;;;16.10;99.90;;;;;;5051808;28;20228;-76
2023/07/22 05:28:39;;;;;;;20.60;9.97;;;16.20;99.90;;;;;;5029114;28;20277;-76
2023/07/22 05:31:06;;;;;;;21.87;9.70;;;16.20;99.90;;;;;;5026536;28;20208;-75
2023/07/22 05:33:33;;;;;;;22.80;10.90;;;16.20;99.90;;;;;;5050047;28;20205;-75
2023/07/22 05:36:00;;;;;;;21.90;10.27;;;16.30;99.90;;;;;;5032707;28;20251;-75
2023/07/22 05:38:27;;;;;;;20.53;10.40;;;16.40;99.90;;;;;;5051487;28;20255;-74
2023/07/22 05:40:54;;;;;;;23.70;10.90;;;16.50;99.90;;;;;;5053399;28;20649;-76
2023/07/22 05:43:21;;;;;;;23.23;10.80;;;16.60;99.90;;;;;;5049253;28;20707;-75
2023/07/22 05:45:49;;;;;;;21.37;11.50;;;16.60;99.90;;;;;;5058687;28;20257;-76
2023/07/22 05:48:16;;;;;;;21.77;9.87;;;16.80;99.90;;;;;;5060574;28;20665;-75
2023/07/22 05:50:43;;;;;;;19.93;9.80;;;16.90;99.90;;;;;;5056906;28;20197;-75
2023/07/22 05:53:10;;;;;;;22.20;11.10;;;17.00;99.90;;;;;;5057015;28;20377;-76
2023/07/22 05:55:37;;;;;;;24.17;11.70;;;17.10;99.90;;;;;;5056710;28;20213;-75
2023/07/22 05:58:08;;;;;;;23.92;11.00;;;17.30;99.90;;;;;;5055598;28;20282;-75
2023/07/22 06:00:35;;;;;;;22.92;11.13;;;17.50;99.90;;;;;;5062869;28;20247;-74
2023/07/22 06:03:02;;;;;;;22.15;10.68;;;17.80;99.90;;;;;;5054910;28;20222;-75
2023/07/22 06:05:29;;;;;;;23.77;11.52;;;18.20;99.90;;;;;;5057861;28;20222;-74
2023/07/22 06:07:57;;;;;;;21.70;11.27;;;18.70;99.90;;;;;;5039719;28;20232;-75
2023/07/22 06:10:24;;;;;;;23.67;11.15;;;18.80;99.90;;;;;;5054175;28;20717;-76
2023/07/22 06:12:52;;;;;;;19.38;10.27;;;19.00;99.90;;;;;;5063192;28;20217;-75
2023/07/22 06:15:19;;;;;;;17.75;10.45;;;19.00;99.90;;;;;;5049317;28;20201;-77
2023/07/22 06:17:45;;;;;;;21.10;10.70;;;18.90;99.90;;;;;;5059989;28;20236;-75
2023/07/22 06:20:12;;;;;;;20.40;10.98;;;18.70;99.90;;;;;;5052028;28;20220;-76
2023/07/22 06:22:39;;;;;;;18.75;9.70;;;18.70;99.90;;;;;;5052315;28;20201;-76
2023/07/22 06:25:06;;;;;;;18.33;9.93;;;19.50;99.90;;;;;;5052151;28;20201;-75
2023/07/22 06:27:35;;;;;;;19.70;10.35;;;18.70;99.90;;;;;;5060521;28;20250;-75
2023/07/22 06:30:02;;;;;;;23.27;11.23;;;18.80;99.90;;;;;;5063271;28;20312;-76
2023/07/22 06:32:29;;;;;;;16.55;9.10;;;18.80;99.90;;;;;;5043561;28;20259;-75
2023/07/22 06:34:58;;;;;;;18.63;9.48;;;18.80;99.90;;;;;;5064256;28;20266;-74
2023/07/22 06:37:25;;;;;;;18.15;8.63;;;18.80;99.90;;;;;;5041013;28;20224;-76
2023/07/22 06:39:52;;;;;;;18.42;9.27;;;18.70;99.90;;;;;;5064994;28;20510;-74
2023/07/22 06:42:19;;;;;;;15.88;8.35;;;18.90;99.90;;;;;;5054564;28;20773;-76
2023/07/22 06:44:46;;;;;;;18.05;8.45;;;19.10;99.90;;;;;;5028211;28;20213;-74
2023/07/22 06:47:13;;;;;;;17.38;8.27;;;19.50;99.90;;;;;;5057709;28;20221;-76
2023/07/22 06:49:43;;;;;;;14.23;7.82;;;19.60;99.90;;;;;;5047226;28;20193;-76
2023/07/22 06:52:13;;;;;;;15.52;8.23;;;19.50;99.90;;;;;;5047563;28;20237;-76
2023/07/22 06:54:40;;;;;;;14.23;8.25;;;19.70;99.90;;;;;;5024231;28;20274;-75
2023/07/22 06:57:07;;;;;;;15.35;8.82;;;19.80;99.90;;;;;;5056101;28;20256;-75
2023/07/22 06:59:34;;;;;;;15.95;8.48;;;19.60;99.90;;;;;;5053109;28;20228;-75
2023/07/22 07:02:02;;;;;;;15.23;8.05;;;20.00;99.90;;;;;;5055161;28;20563;-76
2023/07/22 07:04:29;;;;;;;16.58;8.73;;;20.20;99.90;;;;;;5061416;28;20560;-75
2023/07/22 07:06:56;;;;;;;14.15;7.95;;;20.40;99.90;;;;;;5053534;28;20225;-74
2023/07/22 07:09:23;;;;;;;15.57;9.60;;;20.90;99.90;;;;;;5055225;28;20458;-77
2023/07/22 07:11:50;;;;;;;17.65;9.88;;;21.60;99.90;;;;;;5062159;28;20527;-77
2023/07/22 07:14:17;;;;;;;14.88;7.82;;;22.60;99.90;;;;;;5069381;28;20265;-76
2023/07/22 07:16:46;;;;;;;15.73;7.57;;;22.60;99.90;;;;;;5058343;28;20658;-75
2023/07/22 07:19:13;;;;;;;16.90;7.57;;;22.40;99.90;;;;;;5040774;28;20215;-76
2023/07/22 07:21:40;;;;;;;14.93;7.32;;;22.60;99.90;;;;;;5054933;28;20692;-74
2023/07/22 07:24:07;;;;;;;13.43;8.63;;;23.00;99.90;;;;;;5029117;28;20193;-75
2023/07/22 07:26:33;;;;;;;13.68;7.38;;;22.90;99.90;;;;;;5066115;28;20232;-74
2023/07/22 07:29:00;;;;;;;14.60;7.45;;;22.80;99.90;;;;;;5050384;28;20209;-73
2023/07/22 07:31:27;;;;;;;13.95;8.30;;;23.10;99.90;;;;;;5057427;28;20548;-74
2023/07/22 07:33:57;;;;;;;14.32;7.93;;;23.30;99.90;;;;;;5067977;28;20219;-74
2023/07/22 07:36:23;;;;;;;14.95;7.85;;;23.90;99.90;;;;;;5049087;28;20197;-76
2023/07/22 07:38:51;;;;;;;11.07;6.70;;;24.50;99.90;;;;;;5049672;28;20205;-74
2023/07/22 07:41:18;;;;;;;10.70;6.90;;;24.80;99.90;;;;;;5052892;28;20740;-74
2023/07/22 07:43:45;;;;;;;10.18;6.38;;;25.20;99.90;;;;;;5049732;28;20197;-75
2023/07/22 07:46:22;;;;;;;12.88;6.25;;;25.60;99.90;;;;;;5068389;28;20233;-76
2023/07/22 07:48:52;;;;;;;9.52;6.32;;;25.80;99.90;;;;;;5055482;28;20531;-75
2023/07/22 07:51:21;;;;;;;11.70;5.53;;;26.10;99.90;;;;;;5048047;28;20205;-77
2023/07/22 07:53:49;;;;;;;12.63;5.78;;;26.50;99.90;;;;;;5050578;28;20290;-75
2023/07/22 07:56:17;;;;;;;11.52;6.22;;;27.00;99.90;;;;;;5064273;28;20263;-75
2023/07/22 07:58:45;;;;;;;10.10;5.80;;;26.80;99.90;;;;;;5051081;28;20454;-76
2023/07/22 08:01:12;;;;;;;8.57;5.55;;;27.10;99.90;;;;;;5055922;28;20672;-74
2023/07/22 08:03:41;;;;;;;8.85;5.45;;;26.90;99.90;;;;;;5052365;28;20205;-75
2023/07/22 08:06:09;;;;;;;9.27;5.18;;;26.80;99.90;;;;;;5062450;28;20205;-75
2023/07/22 08:08:37;;;;;;;7.82;4.95;;;26.40;99.90;;;;;;5048726;28;20846;-77
2023/07/22 08:11:05;;;;;;;7.45;5.00;;;26.30;99.90;;;;;;5066516;28;20207;-76
2023/07/22 08:13:33;;;;;;;8.13;5.30;;;25.90;99.90;;;;;;5032910;28;20595;-77
2023/07/22 08:16:02;;;;;;;8.55;5.07;;;25.50;99.90;;;;;;5060288;28;20255;-77
2023/07/22 08:18:31;;;;;;;9.07;5.43;;;25.20;99.90;;;;;;5055988;28;20268;-76
2023/07/22 08:20:57;;;;;;;9.82;5.40;;;25.00;99.90;;;;;;5066031;28;20204;-77
2023/07/22 08:23:25;;;;;;;7.15;4.78;;;25.10;99.90;;;;;;5049177;28;20251;-75
2023/07/22 08:25:52;;;;;;;8.15;5.05;;;25.20;99.90;;;;;;5068388;28;20235;-75
2023/07/22 08:28:19;;;;;;;7.55;4.50;;;25.10;99.90;;;;;;5048987;28;20268;-76
2023/07/22 08:30:48;;;;;;;7.25;4.47;;;24.70;99.90;;;;;;5047391;28;20209;-77
2023/07/22 08:33:18;;;;;;;7.57;4.78;;;24.50;99.90;;;;;;5066740;28;20211;-75
2023/07/22 08:36:05;;;;;;;7.35;4.57;;;24.30;99.90;;;;;;5066749;28;20208;-75
2023/07/22 08:38:32;;;;;;;8.50;5.03;;;24.10;99.90;;;;;;5033034;28;20544;-76
2023/07/22 08:40:58;;;;;;;9.88;5.25;;;23.80;99.90;;;;;;5055367;28;20211;-76
2023/07/22 08:43:28;;;;;;;8.27;5.03;;;23.60;99.90;;;;;;5054972;28;20239;-76
2023/07/22 08:45:59;;;;;;;10.95;5.57;;;23.50;99.90;;;;;;5047325;28;20213;-75
2023/07/22 08:48:28;;;;;;;9.25;4.63;;;23.20;99.90;;;;;;5067588;28;20271;-75
2023/07/22 08:51:02;;;;;;;7.50;4.40;;;23.20;99.90;;;;;;5068746;28;20453;-75
2023/07/22 08:53:30;;;;;;;7.35;4.75;;;23.20;99.90;;;;;;5066247;28;20219;-76
2023/07/22 08:55:56;;;;;;;8.48;4.90;;;23.20;99.90;;;;;;5056510;28;20208;-76
2023/07/22 08:58:24;;;;;;;7.97;4.60;;;22.90;99.90;;;;;;5068003;28;20696;-75
2023/07/22 09:00:51;;;;;;;8.70;5.05;;;23.00;99.90;;;;;;5067939;28;20268;-76
2023/07/22 09:03:19;;;;;;;8.45;4.88;;;23.00;99.90;;;;;;5055691;28;20236;-75
2023/07/22 09:05:47;;;;;;;7.53;4.35;;;23.00;99.90;;;;;;5068171;28;20208;-75
2023/07/22 09:08:14;;;;;;;11.48;4.75;;;22.90;99.90;;;;;;5065306;28;20235;-74
2023/07/22 09:10:42;;;;;;;8.38;4.82;;;23.00;99.90;;;;;;5056805;28;20208;-74
2023/07/22 09:13:09;;;;;;;9.82;4.88;;;23.20;99.90;;;;;;5067871;28;20217;-75
2023/07/22 09:15:37;;;;;;;8.88;5.18;;;23.30;99.90;;;;;;5067309;28;20224;-75
2023/07/22 09:18:04;;;;;;;8.45;5.07;;;23.30;99.90;;;;;;5041426;28;20302;-76
2023/07/22 09:20:32;;;;;;;9.27;4.88;;;23.50;99.90;;;;;;5059955;28;20201;-75
2023/07/22 09:23:02;;;;;;;7.70;4.60;;;23.60;99.90;;;;;;5041385;28;20213;-72
2023/07/22 09:25:41;;;;;;;6.07;4.50;;;23.70;99.90;;;;;;5051267;28;20281;-73
2023/07/22 09:28:09;;;;;;;7.97;4.60;;;23.80;99.90;;;;;;5067729;28;20232;-74
2023/07/22 09:30:38;;;;;;;7.72;4.70;;;23.80;99.90;;;;;;5067959;28;20308;-74
2023/07/22 09:33:07;;;;;;;7.57;4.38;;;23.70;99.90;;;;;;5068020;28;20664;-75
2023/07/22 09:35:46;;;;;;;8.27;4.65;;;23.70;99.90;;;;;;5057729;28;20666;-75
2023/07/22 09:38:15;;;;;;;7.95;4.65;;;23.80;99.90;;;;;;5061818;28;20240;-75
2023/07/22 09:40:42;;;;;;;7.72;4.82;;;23.60;99.90;;;;;;5061310;28;20215;-75
2023/07/22 09:43:12;;;;;;;6.82;4.53;;;23.70;99.90;;;;;;5067910;28;20224;-75
2023/07/22 09:45:39;;;;;;;8.05;4.10;;;23.70;99.90;;;;;;5067821;28;20208;-74
2023/07/22 09:48:08;;;;;;;7.47;3.55;;;23.60;99.90;;;;;;5068035;28;20722;-74
2023/07/22 09:50:36;;;;;;;5.47;3.10;;;23.50;99.90;;;;;;5068296;28;20212;-78
2023/07/22 09:53:04;;;;;;;5.30;3.33;;;23.50;99.90;;;;;;5039660;28;20224;-73
2023/07/22 09:55:32;;;;;;;6.55;3.47;;;23.30;99.90;;;;;;5043509;28;20237;-74
2023/07/22 09:58:01;;;;;;;5.85;3.33;;;23.30;99.90;;;;;;5053841;28;20715;-76
2023/07/22 10:00:30;;;;;;;7.40;4.00;;;23.20;99.90;;;;;;5045969;28;20220;-76
2023/07/22 10:02:58;;;;;;;7.78;4.65;;;23.30;99.90;;;;;;5061472;28;20572;-76
2023/07/22 10:05:26;;;;;;;6.97;4.40;;;23.30;99.90;;;;;;5067705;28;20205;-77
2023/07/22 10:07:56;;;;;;;7.57;4.57;;;23.20;99.90;;;;;;5027799;28;20253;-78
2023/07/22 10:10:30;;;;;;;7.35;4.13;;;23.20;99.90;;;;;;5046256;28;20206;-76
2023/07/22 10:12:58;;;;;;;8.43;4.13;;;23.20;99.90;;;;;;5050211;28;20212;-76
2023/07/22 10:15:35;;;;;;;7.70;3.60;;;23.10;99.90;;;;;;5051465;28;20216;-75
2023/07/22 10:18:04;;;;;;;7.55;4.15;;;22.90;99.90;;;;;;5055358;28;20316;-77
2023/07/22 10:20:36;;;;;;;6.47;3.97;;;22.80;99.90;;;;;;5069327;28;20204;-76
2023/07/22 10:23:05;;;;;;;7.45;4.50;;;22.60;99.90;;;;;;5064958;28;20620;-77
2023/07/22 10:25:32;;;;;;;8.00;4.55;;;22.50;99.90;;;;;;5048459;28;20284;-76
2023/07/22 10:27:59;;;;;;;6.05;4.20;;;22.50;99.90;;;;;;5022076;28;20260;-76
2023/07/22 10:30:26;;;;;;;7.65;4.38;;;22.50;99.90;;;;;;5048818;28;20263;-77
2023/07/22 10:32:53;;;;;;;5.38;3.70;;;22.50;99.90;;;;;;5038041;28;20241;-76
2023/07/22 10:35:29;;;;;;;6.70;3.90;;;22.50;99.90;;;;;;5054173;28;20262;-77
2023/07/22 10:38:13;;;;;;;6.30;3.40;;;22.30;99.90;;;;;;5054847;28;20648;-77
2023/07/22 10:40:50;;;;;;;8.00;3.65;;;22.30;99.90;;;;;;5042014;28;20205;-77
2023/07/22 10:43:18;;;;;;;6.20;3.75;;;22.30;99.90;;;;;;5035220;28;20217;-77
2023/07/22 10:45:53;;;;;;;6.72;3.75;;;22.10;99.90;;;;;;5058478;28;20239;-77
2023/07/22 10:48:25;;;;;;;7.00;3.50;;;22.10;99.90;;;;;;5060755;28;20220;-76
2023/07/22 10:50:57;;;;;;;8.85;4.03;;;22.30;99.90;;;;;;5042790;28;20201;-76
2023/07/22 10:53:24;;;;;;;7.30;3.60;;;22.40;99.90;;;;;;5031980;28;20205;-76
2023/07/22 10:56:07;;;;;;;6.32;3.90;;;22.30;99.90;;;;;;5045114;28;20209;-76
2023/07/22 10:58:46;;;;;;;6.22;4.00;;;22.20;99.90;;;;;;5059706;28;20720;-76
2023/07/22 11:01:36;;;;;;;7.28;4.60;;;22.30;99.90;;;;;;5049919;28;20643;-77
2023/07/22 11:04:05;;;;;;;7.18;3.88;;;22.10;99.90;;;;;;5057056;28;20288;-76
2023/07/22 11:06:32;;;;;;;7.32;3.58;;;22.00;99.90;;;;;;5069104;28;20679;-76
2023/07/22 11:08:59;;;;;;;8.05;3.92;;;22.00;99.90;;;;;;5062642;28;20229;-76
2023/07/22 11:11:55;;;;;;;6.28;3.90;;;22.10;99.90;;;;;;5060935;28;20307;-75
2023/07/22 11:14:23;;;;;;;8.20;3.80;;;22.20;99.90;;;;;;5054505;28;20228;-77
2023/07/22 11:16:50;;;;;;;5.93;4.10;;;22.20;99.90;;;;;;5054085;28;20202;-76
2023/07/22 11:19:19;;;;;;;6.70;3.90;;;22.30;99.90;;;;;;5049429;28;20293;-76
2023/07/22 11:21:47;;;;;;;8.85;3.63;;;22.40;99.90;;;;;;5056008;28;20258;-78
2023/07/22 11:24:15;;;;;;;5.53;3.50;;;22.40;99.90;;;;;;5050337;28;20590;-80
2023/07/22 11:26:43;;;;;;;7.47;3.90;;;22.30;99.90;;;;;;5060430;28;20209;-77
2023/07/22 11:29:13;;;;;;;5.50;3.70;;;22.40;99.90;;;;;;5045206;28;20260;-77
2023/07/22 11:31:45;;;;;;;6.72;3.40;;;22.40;99.90;;;;;;5051199;28;20205;-76
2023/07/22 11:34:13;;;;;;;7.30;3.75;;;22.40;99.90;;;;;;5057832;28;20332;-76
2023/07/22 11:36:41;;;;;;;6.63;3.85;;;22.20;99.90;;;;;;5049069;28;20197;-77
2023/07/22 11:39:11;;;;;;;6.97;3.83;;;22.20;99.90;;;;;;5048952;28;20472;-77
2023/07/22 11:41:38;;;;;;;5.40;3.92;;;22.10;99.90;;;;;;5054080;28;20267;-77
2023/07/22 11:44:08;;;;;;;7.72;4.72;;;22.10;99.90;;;;;;5054872;28;20577;-79
2023/07/22 11:46:57;;;;;;;10.40;4.75;;;21.80;99.90;;;;;;5057606;28;20316;-78
2023/07/22 11:49:28;;;;;;;8.80;5.03;;;21.50;99.90;;;;;;5048644;28;20221;-79
2023/07/22 11:52:08;;;;;;;11.30;5.10;;;21.20;99.90;;;;;;5052871;28;20638;-78
2023/07/22 11:54:40;;;;;;;9.27;5.20;;;20.80;99.90;;;;;;5033439;28;20635;-77
2023/07/22 11:57:23;;;;;;;9.50;5.05;;;20.60;99.90;;;;;;5043216;28;20282;-77
2023/07/22 11:59:53;;;;;;;7.13;4.47;;;20.30;99.90;;;;;;5049502;28;20715;-76
2023/07/22 12:02:21;;;;;;;8.43;5.57;;;20.10;99.90;;;;;;5045576;28;20228;-78
2023/07/22 12:05:07;;;;;;;10.02;4.78;;;20.10;99.90;;;;;;5050300;28;20242;-78
2023/07/22 12:07:38;;;;;;;7.68;4.25;;;20.00;99.90;;;;;;5046275;28;20205;-77
2023/07/22 12:10:07;;;;;;;6.97;4.50;;;20.10;99.90;;;;;;5051956;28;20205;-78
2023/07/22 12:12:36;;;;;;;8.43;4.72;;;20.20;99.90;;;;;;5045642;28;20582;-78
2023/07/22 12:15:24;;;;;;;7.38;4.65;;;20.20;99.90;;;;;;5033674;28;20197;-78
2023/07/22 12:17:55;;;;;;;9.60;5.10;;;20.40;99.90;;;;;;5048523;28;20518;-77
2023/07/22 12:20:28;;;;;;;10.02;4.75;;;20.50;99.90;;;;;;5059286;28;20288;-78
2023/07/22 12:22:56;;;;;;;9.90;4.47;;;20.70;99.90;;;;;;5035018;28;20236;-77
2023/07/22 12:25:23;;;;;;;8.30;4.40;;;20.70;99.90;;;;;;5063471;28;20200;-76
2023/07/22 12:27:50;;;;;;;8.10;4.40;;;20.70;99.90;;;;;;5012092;28;20225;-76
2023/07/22 12:30:18;;;;;;;7.32;4.20;;;20.80;99.90;;;;;;5046804;28;20204;-79
2023/07/22 12:32:46;;;;;;;8.88;4.10;;;20.90;99.90;;;;;;5047875;28;20540;-78
2023/07/22 12:35:14;;;;;;;7.75;4.10;;;21.20;99.90;;;;;;5046240;28;20723;-78
2023/07/22 12:37:40;;;;;;;6.53;4.20;;;21.40;99.90;;;;;;5047823;28;20299;-77
2023/07/22 12:40:08;;;;;;;6.75;4.15;;;21.50;99.90;;;;;;5036264;28;20201;-78
2023/07/22 12:42:36;;;;;;;7.47;3.75;;;21.50;99.90;;;;;;5051194;28;20225;-77
2023/07/22 12:45:04;;;;;;;8.52;4.50;;;21.50;99.90;;;;;;5052455;28;20200;-78
2023/07/22 12:47:31;;;;;;;6.20;4.38;;;21.50;99.90;;;;;;5054217;28;20514;-77